Time;durP1;ratioP1;P1;durP2;ratioP2;P2;SDS_P1;SDS_P2;PMS_P1;PMS_P2;Temp;Humidity;BMP_temperature;BMP_pressure;BME280_temperature;BME280_humidity;BME280_pressure;Samples;Min_cycle;Max_cycle;Signal;HPM_P1;HPM_P2
2023/05/13 00:02:11;;;;;;;;;;;13.60;99.90;;;;;;5112047;28;19908;-41
2023/05/13 00:04:37;;;;;;;;;;;13.60;99.90;;;;;;5113307;28;20354;-43
2023/05/13 00:07:02;;;;;;;;;;;13.60;99.90;;;;;;5112753;28;19961;-42
2023/05/13 00:09:28;;;;;;;;;;;13.50;99.90;;;;;;5111805;28;19912;-43
2023/05/13 00:11:53;;;;;;;;;;;13.50;99.90;;;;;;5112119;28;19908;-42
2023/05/13 00:14:19;;;;;;;;;;;13.40;99.90;;;;;;5115891;28;19919;-43
2023/05/13 00:16:45;;;;;;;;;;;13.40;99.90;;;;;;5131785;28;19907;-44
2023/05/13 00:19:10;;;;;;;;;;;13.30;99.90;;;;;;5132420;28;19911;-42
2023/05/13 00:21:36;;;;;;;;;;;13.30;99.90;;;;;;5133367;28;19908;-43
2023/05/13 00:24:01;;;;;;;;;;;13.30;99.90;;;;;;5132439;28;20350;-45
2023/05/13 00:26:27;;;;;;;;;;;13.30;99.90;;;;;;5133311;28;19908;-42
2023/05/13 00:28:52;;;;;;;;;;;13.30;99.90;;;;;;5132560;28;19914;-43
2023/05/13 00:31:18;;;;;;;;;;;13.30;99.90;;;;;;5123159;27;19912;-43
2023/05/13 00:33:43;;;;;;;;;;;13.30;99.90;;;;;;5116151;28;20323;-43
2023/05/13 00:36:11;;;;;;;;;;;13.30;99.90;;;;;;5115635;28;19919;-43
2023/05/13 00:38:36;;;;;;;;;;;13.20;99.90;;;;;;5116390;28;20385;-43
2023/05/13 00:41:02;;;;;;;;;;;13.20;99.90;;;;;;5132241;27;19908;-43
2023/05/13 00:43:28;;;;;;;;;;;13.20;99.90;;;;;;5136318;27;19919;-42
2023/05/13 00:45:53;;;;;;;;;;;13.20;99.90;;;;;;5136833;27;19908;-44
2023/05/13 00:48:19;;;;;;;;;;;13.20;99.90;;;;;;5136845;27;19908;-43
2023/05/13 00:50:44;;;;;;;;;;;13.10;99.90;;;;;;5136070;27;19914;-44
2023/05/13 00:53:11;;;;;;;;;;;13.10;99.90;;;;;;5136616;27;19915;-43
2023/05/13 00:55:40;;;;;;;;;;;13.10;99.90;;;;;;5136782;27;20002;-42
2023/05/13 00:58:05;;;;;;;;;;;13.10;99.90;;;;;;5135883;27;19958;-43
2023/05/13 01:00:32;;;;;;;;;;;13.10;99.90;;;;;;5136099;27;19939;-42
2023/05/13 01:03:00;;;;;;;;;;;13.10;99.90;;;;;;5136695;27;19912;-42
2023/05/13 01:05:49;;;;;;;;;;;13.10;99.90;;;;;;5135742;27;19908;-43
2023/05/13 01:08:25;;;;;;;;;;;13.00;99.90;;;;;;5136551;27;19942;-42
2023/05/13 01:10:56;;;;;;;;;;;13.00;99.90;;;;;;5134307;27;19951;-42
2023/05/13 01:13:23;;;;;;;;;;;13.00;99.90;;;;;;5136338;27;19919;-42
2023/05/13 01:16:00;;;;;;;;;;;13.00;99.90;;;;;;5136380;27;19998;-42
2023/05/13 01:18:30;;;;;;;;;;;13.00;99.90;;;;;;5135848;27;20005;-43
2023/05/13 01:20:57;;;;;;;;;;;12.90;99.90;;;;;;5136187;27;19908;-45
2023/05/13 01:23:22;;;;;;;;;;;12.90;99.90;;;;;;5136333;27;19911;-42
2023/05/13 01:25:49;;;;;;;;;;;12.90;99.90;;;;;;5135506;27;19953;-44
2023/05/13 01:28:14;;;;;;;;;;;12.90;99.90;;;;;;5136034;27;20331;-42
2023/05/13 01:30:40;;;;;;;;;;;12.90;99.90;;;;;;5136134;27;19912;-42
2023/05/13 01:33:05;;;;;;;;;;;12.80;99.90;;;;;;5134841;27;19927;-42
2023/05/13 01:35:31;;;;;;;;;;;12.90;99.90;;;;;;5136162;27;20010;-43
2023/05/13 01:37:57;;;;;;;;;;;12.80;99.90;;;;;;5135984;27;19990;-42
2023/05/13 01:40:23;;;;;;;;;;;12.80;99.90;;;;;;5125322;27;19920;-41
2023/05/13 01:42:48;;;;;;;;;;;12.80;99.90;;;;;;5114834;28;19918;-42
2023/05/13 01:45:14;;;;;;;;;;;12.70;99.90;;;;;;5115152;28;19908;-43
2023/05/13 01:47:40;;;;;;;;;;;12.70;99.90;;;;;;5114794;28;19907;-42
2023/05/13 01:50:05;;;;;;;;;;;12.70;99.90;;;;;;5115093;28;20060;-42
2023/05/13 01:52:31;;;;;;;;;;;12.70;99.90;;;;;;5115200;28;19908;-43
2023/05/13 01:54:56;;;;;;;;;;;12.60;99.90;;;;;;5114255;28;19923;-42
2023/05/13 01:57:22;;;;;;;;;;;12.60;99.90;;;;;;5114987;28;20427;-42
2023/05/13 01:59:47;;;;;;;;;;;12.60;99.90;;;;;;5114749;28;19952;-44
2023/05/13 02:02:13;;;;;;;;;;;12.60;99.90;;;;;;5114028;28;19961;-43
2023/05/13 02:04:38;;;;;;;;;;;12.50;99.90;;;;;;5115085;28;19908;-42
2023/05/13 02:07:04;;;;;;;;;;;12.50;99.90;;;;;;5114822;28;19908;-42
2023/05/13 02:09:29;;;;;;;;;;;12.50;99.90;;;;;;5115672;27;20157;-43
2023/05/13 02:11:55;;;;;;;;;;;12.50;99.90;;;;;;5135404;27;19908;-43
2023/05/13 02:14:20;;;;;;;;;;;12.40;99.90;;;;;;5134234;27;19915;-43
2023/05/13 02:16:46;;;;;;;;;;;12.40;99.90;;;;;;5135306;27;19912;-42
2023/05/13 02:19:11;;;;;;;;;;;12.40;99.90;;;;;;5135074;27;19907;-42
2023/05/13 02:21:37;;;;;;;;;;;12.40;99.90;;;;;;5119373;27;19962;-43
2023/05/13 02:24:03;;;;;;;;;;;12.40;99.90;;;;;;5114497;28;19907;-43
2023/05/13 02:26:28;;;;;;;;;;;12.30;99.90;;;;;;5114341;28;19914;-42
2023/05/13 02:28:54;;;;;;;;;;;12.30;99.90;;;;;;5130791;27;19912;-44
2023/05/13 02:31:19;;;;;;;;;;;12.30;99.90;;;;;;5134819;27;19907;-43
2023/05/13 02:33:45;;;;;;;;;;;12.30;99.90;;;;;;5134653;27;19927;-43
2023/05/13 02:36:10;;;;;;;;;;;12.30;99.90;;;;;;5134402;27;19911;-42
2023/05/13 02:38:36;;;;;;;;;;;12.20;99.90;;;;;;5134922;27;19946;-43
2023/05/13 02:41:01;;;;;;;;;;;12.30;99.90;;;;;;5134738;27;20384;-42
2023/05/13 02:43:27;;;;;;;;;;;12.20;99.90;;;;;;5133847;27;19935;-43
2023/05/13 02:45:52;;;;;;;;;;;12.20;99.90;;;;;;5134581;27;19907;-43
2023/05/13 02:48:18;;;;;;;;;;;12.20;99.90;;;;;;5134631;27;19915;-42
2023/05/13 02:50:43;;;;;;;;;;;12.20;99.90;;;;;;5133814;27;20366;-42
2023/05/13 02:53:09;;;;;;;;;;;12.20;99.90;;;;;;5134366;27;19908;-42
2023/05/13 02:55:34;;;;;;;;;;;12.10;99.90;;;;;;5133719;27;19907;-44
2023/05/13 02:58:00;;;;;;;;;;;12.10;99.90;;;;;;5133493;27;19912;-42
2023/05/13 03:00:25;;;;;;;;;;;12.10;99.90;;;;;;5115905;27;19918;-43
2023/05/13 03:02:51;;;;;;;;;;;12.00;99.90;;;;;;5113834;28;20394;-43
2023/05/13 03:05:16;;;;;;;;;;;12.00;99.90;;;;;;5113188;28;19912;-42
2023/05/13 03:07:42;;;;;;;;;;;12.00;99.90;;;;;;5113606;28;19912;-43
2023/05/13 03:10:07;;;;;;;;;;;12.00;99.90;;;;;;5113435;28;20362;-45
2023/05/13 03:12:33;;;;;;;;;;;12.00;99.90;;;;;;5112873;28;19925;-43
2023/05/13 03:14:59;;;;;;;;;;;11.90;99.90;;;;;;5113436;28;20393;-43
2023/05/13 03:17:24;;;;;;;;;;;11.90;99.90;;;;;;5113559;28;19962;-43
2023/05/13 03:19:50;;;;;;;;;;;11.90;99.90;;;;;;5112865;28;19911;-44
2023/05/13 03:22:16;;;;;;;;;;;11.80;99.90;;;;;;5113403;28;20044;-43
2023/05/13 03:24:42;;;;;;;;;;;11.80;99.90;;;;;;5112755;28;19914;-43
2023/05/13 03:27:07;;;;;;;;;;;11.80;99.90;;;;;;5113332;28;20396;-44
2023/05/13 03:29:33;;;;;;;;;;;11.70;99.90;;;;;;5123623;27;19922;-42
2023/05/13 03:31:58;;;;;;;;;;;11.70;99.90;;;;;;5132946;27;19998;-42
2023/05/13 03:34:24;;;;;;;;;;;11.70;99.90;;;;;;5133516;27;19970;-46
2023/05/13 03:36:49;;;;;;;;;;;11.60;99.90;;;;;;5133796;27;19930;-42
2023/05/13 03:39:15;;;;;;;;;;;11.60;99.90;;;;;;5132909;27;19915;-43
2023/05/13 03:41:40;;;;;;;;;;;11.60;99.90;;;;;;5133753;27;19919;-44
2023/05/13 03:44:06;;;;;;;;;;;11.50;99.90;;;;;;5133605;27;19908;-43
2023/05/13 03:46:32;;;;;;;;;;;11.50;99.90;;;;;;5133060;28;20392;-43
2023/05/13 03:48:58;;;;;;;;;;;11.40;99.90;;;;;;5133638;28;19908;-43
2023/05/13 03:51:23;;;;;;;;;;;11.50;99.90;;;;;;5133648;28;19965;-45
2023/05/13 03:53:49;;;;;;;;;;;11.40;99.90;;;;;;5132778;28;19922;-45
2023/05/13 03:56:15;;;;;;;;;;;11.50;99.90;;;;;;5133480;28;19911;-43
2023/05/13 03:58:40;;;;;;;;;;;11.50;99.90;;;;;;5131368;28;19912;-43
2023/05/13 04:01:06;;;;;;;;;;;11.50;99.90;;;;;;5112028;28;19912;-42
2023/05/13 04:03:33;;;;;;;;;;;11.50;99.90;;;;;;5113098;28;19908;-44
2023/05/13 04:05:58;;;;;;;;;;;11.50;99.90;;;;;;5113780;28;19915;-44
2023/05/13 04:08:24;;;;;;;;;;;11.50;99.90;;;;;;5115428;28;19908;-44
2023/05/13 04:10:50;;;;;;;;;;;11.50;99.90;;;;;;5116133;28;19915;-44
2023/05/13 04:13:15;;;;;;;;;;;11.50;99.90;;;;;;5115948;28;19963;-44
2023/05/13 04:15:41;;;;;;;;;;;11.50;99.90;;;;;;5115487;28;20006;-46
2023/05/13 04:18:06;;;;;;;;;;;11.60;99.90;;;;;;5116097;28;20045;-43
2023/05/13 04:20:32;;;;;;;;;;;11.60;99.90;;;;;;5116572;28;20373;-44
2023/05/13 04:22:57;;;;;;;;;;;11.60;99.90;;;;;;5116109;28;19907;-44
2023/05/13 04:25:23;;;;;;;;;;;11.60;99.90;;;;;;5116877;28;19916;-44
2023/05/13 04:27:48;;;;;;;;;;;11.70;99.90;;;;;;5116789;28;20096;-43
2023/05/13 04:30:15;;;;;;;;;;;11.60;99.90;;;;;;5131102;27;19907;-44
2023/05/13 04:32:40;;;;;;;;;;;11.70;99.90;;;;;;5137045;27;19919;-42
2023/05/13 04:35:06;;;;;;;;;;;11.70;99.90;;;;;;5136309;27;20320;-45
2023/05/13 04:37:32;;;;;;;;;;;11.70;99.90;;;;;;5137193;27;19908;-44
2023/05/13 04:39:57;;;;;;;;;;;11.70;99.90;;;;;;5136936;27;20018;-42
2023/05/13 04:42:23;;;;;;;;;;;11.70;99.90;;;;;;5136211;27;19913;-43
2023/05/13 04:44:48;;;;;;;;;;;11.70;99.90;;;;;;5137117;27;19960;-43
2023/05/13 04:47:14;;;;;;;;;;;11.80;99.90;;;;;;5137043;27;19907;-44
2023/05/13 04:49:39;;;;;;;;;;;11.80;99.90;;;;;;5123864;27;19959;-44
2023/05/13 04:52:05;;;;;;;;;;;11.80;99.90;;;;;;5115873;27;19911;-43
2023/05/13 04:54:31;;;;;;;;;;;11.80;99.90;;;;;;5126908;27;19919;-44
2023/05/13 04:56:56;;;;;;;;;;;11.80;99.90;;;;;;5125034;27;19907;-43
2023/05/13 04:59:22;;;;;;;;;;;11.80;99.90;;;;;;5124783;27;19907;-44
2023/05/13 05:01:48;;;;;;;;;;;11.80;99.90;;;;;;5126905;27;20324;-45
2023/05/13 05:04:13;;;;;;;;;;;11.90;99.90;;;;;;5123669;27;19916;-44
2023/05/13 05:06:38;;;;;;;;;;;11.90;99.90;;;;;;5125640;27;20359;-43
2023/05/13 05:09:04;;;;;;;;;;;11.90;99.90;;;;;;5126091;27;19912;-43
2023/05/13 05:11:29;;;;;;;;;;;12.00;99.90;;;;;;5125848;27;19907;-43
2023/05/13 05:13:55;;;;;;;;;;;12.00;99.90;;;;;;5125600;27;19973;-45
2023/05/13 05:16:20;;;;;;;;;;;12.00;99.90;;;;;;5126392;27;20503;-44
2023/05/13 05:18:46;;;;;;;;;;;12.00;99.90;;;;;;5124774;27;20290;-43
2023/05/13 05:21:12;;;;;;;;;;;12.10;99.90;;;;;;5126000;27;20303;-43
2023/05/13 05:23:37;;;;;;;;;;;12.10;99.90;;;;;;5125509;27;19953;-44
2023/05/13 05:26:03;;;;;;;;;;;12.20;99.90;;;;;;5124879;27;20273;-43
2023/05/13 05:28:29;;;;;;;;;;;12.20;99.90;;;;;;5137385;27;20011;-44
2023/05/13 05:30:54;;;;;;;;;;;12.20;99.90;;;;;;5134330;27;19937;-44
2023/05/13 05:33:20;;;;;;;;;;;12.30;99.90;;;;;;5123244;27;19920;-43
2023/05/13 05:35:46;;;;;;;;;;;12.30;99.90;;;;;;5125317;27;20417;-45
2023/05/13 05:38:11;;;;;;;;;;;12.30;99.90;;;;;;5123437;27;20054;-47
2023/05/13 05:40:41;;;;;;;;;;;12.40;99.90;;;;;;5124629;27;19935;-44
2023/05/13 05:43:07;;;;;;;;;;;12.40;99.90;;;;;;5126645;27;19918;-43
2023/05/13 05:45:33;;;;;;;;;;;12.50;99.90;;;;;;5123974;27;19915;-44
2023/05/13 05:47:59;;;;;;;;;;;12.50;99.90;;;;;;5122912;27;20345;-44
2023/05/13 05:50:24;;;;;;;;;;;12.60;99.90;;;;;;5125839;27;19915;-43
2023/05/13 05:52:50;;;;;;;;;;;12.60;99.90;;;;;;5120948;27;19922;-44
2023/05/13 05:55:15;;;;;;;;;;;12.60;99.90;;;;;;5125101;27;19924;-43
2023/05/13 05:57:41;;;;;;;;;;;12.70;99.90;;;;;;5125290;27;20002;-46
2023/05/13 06:00:07;;;;;;;;;;;12.70;99.90;;;;;;5122427;27;20289;-43
2023/05/13 06:02:32;;;;;;;;;;;12.70;99.90;;;;;;5126249;27;19959;-44
2023/05/13 06:04:57;;;;;;;;;;;12.70;99.90;;;;;;5122859;27;20282;-45
2023/05/13 06:07:23;;;;;;;;;;;12.80;99.90;;;;;;5124647;27;19913;-43
2023/05/13 06:09:48;;;;;;;;;;;12.80;99.90;;;;;;5124335;27;19908;-43
2023/05/13 06:12:14;;;;;;;;;;;12.90;99.90;;;;;;5122159;27;19994;-43
2023/05/13 06:14:39;;;;;;;;;;;12.90;99.90;;;;;;5118904;27;19919;-45
2023/05/13 06:17:05;;;;;;;;;;;12.90;99.90;;;;;;5133376;27;19960;-43
2023/05/13 06:19:30;;;;;;;;;;;12.90;99.90;;;;;;5136689;27;19916;-43
2023/05/13 06:21:56;;;;;;;;;;;13.00;99.90;;;;;;5131841;27;20330;-44
2023/05/13 06:24:21;;;;;;;;;;;13.00;99.90;;;;;;5134188;27;19956;-45
2023/05/13 06:26:47;;;;;;;;;;;13.00;99.90;;;;;;5139698;27;19912;-43
2023/05/13 06:29:12;;;;;;;;;;;13.10;99.90;;;;;;5125305;27;20462;-43
2023/05/13 06:31:37;;;;;;;;;;;13.10;99.90;;;;;;5134037;27;19907;-43
2023/05/13 06:34:03;;;;;;;;;;;13.20;99.90;;;;;;5122011;27;20026;-43
2023/05/13 06:36:28;;;;;;;;;;;13.20;99.90;;;;;;5113151;28;19915;-43
2023/05/13 06:38:54;;;;;;;;;;;13.30;99.90;;;;;;5113602;28;19910;-43
2023/05/13 06:41:20;;;;;;;;;;;13.40;99.90;;;;;;5113578;28;19907;-43
2023/05/13 06:43:47;;;;;;;;;;;13.40;99.90;;;;;;5112856;28;20138;-45
2023/05/13 06:46:13;;;;;;;;;;;13.50;99.90;;;;;;5113478;28;20382;-43
2023/05/13 06:48:38;;;;;;;;;;;13.60;99.90;;;;;;5112680;28;19908;-43
2023/05/13 06:51:04;;;;;;;;;;;13.70;99.90;;;;;;5113867;28;19907;-44
2023/05/13 06:53:30;;;;;;;;;;;13.70;99.90;;;;;;5113410;28;19923;-43
2023/05/13 06:55:56;;;;;;;;;;;13.80;99.90;;;;;;5129779;27;19918;-44
2023/05/13 06:58:21;;;;;;;;;;;13.80;99.90;;;;;;5126536;27;19911;-43
2023/05/13 07:00:47;;;;;;;;;;;13.90;99.90;;;;;;5126407;27;19956;-44
2023/05/13 07:03:13;;;;;;;;;;;13.90;99.90;;;;;;5130700;27;20266;-43
2023/05/13 07:05:38;;;;;;;;;;;14.00;99.90;;;;;;5120488;27;19923;-43
2023/05/13 07:08:05;;;;;;;;;;;14.10;99.90;;;;;;5123088;27;20356;-42
2023/05/13 07:10:32;;;;;;;;;;;14.10;99.90;;;;;;5123617;27;19912;-46
2023/05/13 07:12:57;;;;;;;;;;;14.20;99.90;;;;;;5122371;27;19951;-45
2023/05/13 07:15:23;;;;;;;;;;;14.20;99.90;;;;;;5121174;27;19974;-44
2023/05/13 07:17:48;;;;;;;;;;;14.30;99.90;;;;;;5115618;27;19918;-43
2023/05/13 07:20:14;;;;;;;;;;;14.40;99.90;;;;;;5120662;27;19999;-45
2023/05/13 07:22:39;;;;;;;;;;;14.50;99.90;;;;;;5119290;27;19912;-43
2023/05/13 07:25:05;;;;;;;;;;;14.50;99.90;;;;;;5123630;27;19919;-43
2023/05/13 07:27:31;;;;;;;;;;;14.60;99.90;;;;;;5122198;27;19954;-43
2023/05/13 07:29:56;;;;;;;;;;;14.70;99.90;;;;;;5121945;27;19907;-44
2023/05/13 07:32:22;;;;;;;;;;;14.80;99.90;;;;;;5121387;27;19964;-43
2023/05/13 07:34:47;;;;;;;;;;;14.80;99.90;;;;;;5123064;27;19919;-43
2023/05/13 07:37:12;;;;;;;;;;;14.90;99.90;;;;;;5121572;27;20388;-43
2023/05/13 07:39:38;;;;;;;;;;;14.90;99.90;;;;;;5115863;27;19912;-44
2023/05/13 07:42:04;;;;;;;;;;;15.00;99.90;;;;;;5130853;27;19919;-43
2023/05/13 07:44:29;;;;;;;;;;;15.00;99.90;;;;;;5130070;27;19919;-45
2023/05/13 07:46:55;;;;;;;;;;;15.10;99.90;;;;;;5132850;28;19964;-45
2023/05/13 07:49:20;;;;;;;;;;;15.20;99.90;;;;;;5133432;28;19915;-46
2023/05/13 07:51:46;;;;;;;;;;;15.30;99.90;;;;;;5132928;28;20374;-43
2023/05/13 07:54:11;;;;;;;;;;;15.30;99.90;;;;;;5132695;28;20372;-44
2023/05/13 07:56:37;;;;;;;;;;;15.40;99.90;;;;;;5133594;28;19956;-43
2023/05/13 07:59:03;;;;;;;;;;;15.50;99.90;;;;;;5127927;28;20068;-43
2023/05/13 08:01:28;;;;;;;;;;;15.50;99.90;;;;;;5121297;28;19915;-43
2023/05/13 08:03:54;;;;;;;;;;;15.60;99.90;;;;;;5125204;27;19911;-45
2023/05/13 08:06:19;;;;;;;;;;;15.60;99.90;;;;;;5142387;27;19907;-42
2023/05/13 08:08:45;;;;;;;;;;;15.80;99.90;;;;;;5124784;27;19915;-46
2023/05/13 08:11:11;;;;;;;;;;;15.90;99.90;;;;;;5123283;28;19922;-43
2023/05/13 08:13:37;;;;;;;;;;;16.00;99.90;;;;;;5118606;27;19973;-42
2023/05/13 08:16:02;;;;;;;;;;;16.10;99.90;;;;;;5134384;27;20270;-43
2023/05/13 08:18:28;;;;;;;;;;;16.20;99.90;;;;;;5139452;27;19917;-43
2023/05/13 08:20:54;;;;;;;;;;;16.30;99.90;;;;;;5133380;27;19912;-42
2023/05/13 08:23:19;;;;;;;;;;;16.40;99.90;;;;;;5121422;28;20515;-43
2023/05/13 08:25:45;;;;;;;;;;;16.50;99.90;;;;;;5126822;27;19994;-43
2023/05/13 08:28:10;;;;;;;;;;;16.50;99.90;;;;;;5126634;27;19927;-43
2023/05/13 08:30:36;;;;;;;;;;;16.60;99.90;;;;;;5125769;28;20274;-42
2023/05/13 08:33:02;;;;;;;;;;;16.70;99.90;;;;;;5133912;27;19934;-44
2023/05/13 08:35:28;;;;;;;;;;;16.80;99.90;;;;;;5131288;27;19928;-43
2023/05/13 08:37:53;;;;;;;;;;;16.80;99.90;;;;;;5137172;27;19918;-43
2023/05/13 08:40:20;;;;;;;;;;;16.90;99.90;;;;;;5126006;27;19912;-43
2023/05/13 08:42:46;;;;;;;;;;;17.00;99.90;;;;;;5142037;27;19994;-43
2023/05/13 08:45:12;;;;;;;;;;;17.10;99.90;;;;;;5136558;27;19943;-43
2023/05/13 08:47:51;;;;;;;;;;;17.10;99.90;;;;;;5132099;28;20310;-42
2023/05/13 08:50:18;;;;;;;;;;;17.20;99.90;;;;;;5135856;27;19919;-43
2023/05/13 08:52:43;;;;;;;;;;;17.30;99.90;;;;;;5147623;27;19911;-43
2023/05/13 08:55:09;;;;;;;;;;;17.30;99.90;;;;;;5156689;27;19938;-45
2023/05/13 08:57:34;;;;;;;;;;;17.40;99.90;;;;;;5150441;27;19932;-43
2023/05/13 09:00:00;;;;;;;;;;;17.50;99.90;;;;;;5154009;27;19942;-43
2023/05/13 09:02:25;;;;;;;;;;;17.60;99.90;;;;;;5154122;27;20516;-43
2023/05/13 09:04:51;;;;;;;;;;;17.70;99.90;;;;;;5146290;27;19911;-43
2023/05/13 09:07:17;;;;;;;;;;;17.70;99.90;;;;;;5141725;27;19930;-43
2023/05/13 09:09:43;;;;;;;;;;;17.80;99.90;;;;;;5134432;27;20388;-43
2023/05/13 09:12:09;;;;;;;;;;;17.90;99.90;;;;;;5146076;27;19907;-43
2023/05/13 09:14:36;;;;;;;;;;;18.00;99.90;;;;;;5145781;27;19919;-43
2023/05/13 09:17:01;;;;;;;;;;;18.00;99.90;;;;;;5132427;27;20393;-44
2023/05/13 09:19:27;;;;;;;;;;;18.20;99.90;;;;;;5133546;27;19911;-43
2023/05/13 09:21:53;;;;;;;;;;;18.30;99.90;;;;;;5131283;27;19916;-43
2023/05/13 09:24:20;;;;;;;;;;;18.40;99.90;;;;;;5135400;27;19919;-43
2023/05/13 09:26:46;;;;;;;;;;;18.50;99.90;;;;;;5138821;27;19911;-42
2023/05/13 09:29:15;;;;;;;;;;;18.60;99.90;;;;;;5144011;27;19915;-42
2023/05/13 09:31:41;;;;;;;;;;;18.60;99.90;;;;;;5140379;27;19958;-43
2023/05/13 09:34:06;;;;;;;;;;;18.80;99.90;;;;;;5156341;27;20354;-42
2023/05/13 09:36:32;;;;;;;;;;;18.90;99.90;;;;;;5144397;27;19916;-42
2023/05/13 09:38:58;;;;;;;;;;;19.00;99.90;;;;;;5145938;27;20358;-43
2023/05/13 09:41:27;;;;;;;;;;;19.10;99.90;;;;;;5139292;27;19911;-42
2023/05/13 09:43:52;;;;;;;;;;;19.20;99.90;;;;;;5130349;27;19941;-42
2023/05/13 09:46:19;;;;;;;;;;;19.20;99.90;;;;;;5134942;27;19908;-42
2023/05/13 09:48:44;;;;;;;;;;;19.30;99.90;;;;;;5131146;27;19918;-44
2023/05/13 09:51:10;;;;;;;;;;;19.40;99.90;;;;;;5137309;27;19919;-42
2023/05/13 09:53:36;;;;;;;;;;;19.60;99.90;;;;;;5150597;27;19915;-44
2023/05/13 09:56:01;;;;;;;;;;;19.60;99.90;;;;;;5136449;27;20314;-43
2023/05/13 09:58:29;;;;;;;;;;;19.70;99.90;;;;;;5133524;27;19961;-42
2023/05/13 10:00:55;;;;;;;;;;;19.80;99.90;;;;;;5116743;27;20006;-43
2023/05/13 10:03:20;;;;;;;;;;;19.90;99.90;;;;;;5111854;28;20496;-43
2023/05/13 10:05:47;;;;;;;;;;;19.90;99.90;;;;;;5123277;27;20045;-43
2023/05/13 10:08:13;;;;;;;;;;;20.00;99.90;;;;;;5134740;27;19930;-43
2023/05/13 10:10:39;;;;;;;;;;;20.00;99.90;;;;;;5134456;27;20358;-42
2023/05/13 10:13:06;;;;;;;;;;;20.10;99.90;;;;;;5122278;27;19915;-44
2023/05/13 10:15:35;;;;;;;;;;;20.20;99.90;;;;;;5117684;27;20018;-43
2023/05/13 10:18:01;;;;;;;;;;;20.30;99.90;;;;;;5113649;28;19908;-43
2023/05/13 10:20:26;;;;;;;;;;;20.40;99.90;;;;;;5113465;28;19914;-43
2023/05/13 10:22:53;;;;;;;;;;;20.50;99.90;;;;;;5120302;27;19961;-44
2023/05/13 10:25:18;;;;;;;;;;;20.60;99.90;;;;;;5134662;27;20002;-43
2023/05/13 10:27:45;;;;;;;;;;;20.70;99.90;;;;;;5142034;27;20354;-43
2023/05/13 10:30:10;;;;;;;;;;;20.60;99.90;;;;;;5144268;27;20206;-43
2023/05/13 10:32:38;;;;;;;;;;;20.70;99.90;;;;;;5134464;27;20278;-43
2023/05/13 10:35:15;;;;;;;;;;;20.80;99.90;;;;;;5139229;27;19925;-43
2023/05/13 10:38:00;;;;;;;;;;;20.90;99.90;;;;;;5150251;27;19933;-42
2023/05/13 10:40:47;;;;;;;;;;;20.90;99.90;;;;;;5146686;27;19911;-43
2023/05/13 10:43:25;;;;;;;;;;;21.00;99.90;;;;;;5151067;27;20288;-42
2023/05/13 10:45:55;;;;;;;;;;;21.10;99.90;;;;;;5151667;27;20064;-42
2023/05/13 10:48:21;;;;;;;;;;;21.20;99.90;;;;;;5155674;27;19914;-43
2023/05/13 10:50:52;;;;;;;;;;;21.30;99.90;;;;;;5147383;27;19915;-42
2023/05/13 10:53:19;;;;;;;;;;;21.30;98.20;;;;;;5135295;27;19907;-42
2023/05/13 10:55:45;;;;;;;;;;;21.40;99.90;;;;;;5134583;27;20371;-42
2023/05/13 10:58:11;;;;;;;;;;;21.40;97.80;;;;;;5134430;27;19995;-42
2023/05/13 11:00:38;;;;;;;;;;;21.40;94.90;;;;;;5134513;27;19919;-43
2023/05/13 11:03:11;;;;;;;;;;;21.50;97.50;;;;;;5133578;27;20060;-42
2023/05/13 11:05:37;;;;;;;;;;;21.60;96.50;;;;;;5134347;27;20229;-43
2023/05/13 11:08:03;;;;;;;;;;;21.50;96.30;;;;;;5134248;27;19907;-43
2023/05/13 11:10:31;;;;;;;;;;;21.60;95.40;;;;;;5133450;27;19998;-42
2023/05/13 11:13:11;;;;;;;;;;;21.60;92.80;;;;;;5134190;27;19931;-42
2023/05/13 11:15:44;;;;;;;;;;;21.60;95.00;;;;;;5133540;27;19942;-42
2023/05/13 11:18:10;;;;;;;;;;;21.70;97.50;;;;;;5133356;27;19908;-41
2023/05/13 11:20:36;;;;;;;;;;;21.90;99.40;;;;;;5129566;27;20014;-43
2023/05/13 11:23:01;;;;;;;;;;;21.90;98.10;;;;;;5112632;28;19947;-42
2023/05/13 11:25:27;;;;;;;;;;;22.10;97.00;;;;;;5113506;28;19908;-42
2023/05/13 11:27:52;;;;;;;;;;;22.10;94.90;;;;;;5113498;28;19953;-42
2023/05/13 11:30:22;;;;;;;;;;;22.10;96.00;;;;;;5112512;28;19953;-42
2023/05/13 11:32:51;;;;;;;;;;;22.10;96.40;;;;;;5113266;28;19927;-43
2023/05/13 11:35:25;;;;;;;;;;;22.10;97.20;;;;;;5112418;28;20443;-42
2023/05/13 11:37:51;;;;;;;;;;;22.20;94.40;;;;;;5112625;28;20329;-42
2023/05/13 11:40:22;;;;;;;;;;;22.30;95.30;;;;;;5113202;28;20370;-43
2023/05/13 11:42:48;;;;;;;;;;;22.40;93.20;;;;;;5113306;28;20003;-43
2023/05/13 11:45:15;;;;;;;;;;;22.50;92.50;;;;;;5112383;28;19995;-42
2023/05/13 11:47:40;;;;;;;;;;;22.50;93.00;;;;;;5113275;28;19916;-42
2023/05/13 11:50:17;;;;;;;;;;;22.40;94.30;;;;;;5113111;28;19915;-42
2023/05/13 11:52:43;;;;;;;;;;;22.40;93.60;;;;;;5112526;28;19947;-44
2023/05/13 11:55:08;;;;;;;;;;;22.60;94.00;;;;;;5112973;28;19959;-42
2023/05/13 11:57:34;;;;;;;;;;;22.70;95.60;;;;;;5113269;28;20288;-43
2023/05/13 12:00:05;;;;;;;;;;;22.90;94.30;;;;;;5124681;28;19911;-43
2023/05/13 12:02:36;;;;;;;;;;;23.10;94.90;;;;;;5133798;28;19935;-43
2023/05/13 12:05:06;;;;;;;;;;;23.30;96.90;;;;;;5132979;28;19907;-42
2023/05/13 12:07:32;;;;;;;;;;;23.30;90.50;;;;;;5142434;27;19954;-42
2023/05/13 12:09:58;;;;;;;;;;;23.20;90.30;;;;;;5151275;27;20350;-45
2023/05/13 12:12:25;;;;;;;;;;;22.90;90.70;;;;;;5133546;28;19911;-45
2023/05/13 12:14:51;;;;;;;;;;;22.60;88.90;;;;;;5132630;28;19926;-42
2023/05/13 12:17:17;;;;;;;;;;;22.40;87.40;;;;;;5134066;28;20002;-43
2023/05/13 12:20:02;;;;;;;;;;;22.50;91.50;;;;;;5133645;28;20009;-44
2023/05/13 12:22:28;;;;;;;;;;;22.60;95.30;;;;;;5133446;28;20009;-43
2023/05/13 12:24:53;;;;;;;;;;;22.60;94.40;;;;;;5136127;27;20385;-43
2023/05/13 12:27:20;;;;;;;;;;;22.60;93.30;;;;;;5144978;27;19911;-42
2023/05/13 12:29:46;;;;;;;;;;;22.70;91.30;;;;;;5142354;27;19914;-42
2023/05/13 12:32:15;;;;;;;;;;;22.80;85.20;;;;;;5151910;27;19911;-42
2023/05/13 12:34:46;;;;;;;;;;;22.90;91.80;;;;;;5122642;27;20021;-43
2023/05/13 12:37:12;;;;;;;;;;;22.90;84.30;;;;;;5128354;27;19919;-43
2023/05/13 12:39:38;;;;;;;;;;;22.70;75.30;;;;;;5121139;27;20342;-45
2023/05/13 12:42:04;;;;;;;;;;;23.00;82.50;;;;;;5136849;27;19998;-43
2023/05/13 12:44:29;;;;;;;;;;;23.30;83.20;;;;;;5137636;27;20022;-42
2023/05/13 12:46:56;;;;;;;;;;;23.70;77.70;;;;;;5137464;27;19929;-42
2023/05/13 12:49:22;;;;;;;;;;;24.00;82.40;;;;;;5136939;27;19916;-43
2023/05/13 12:51:47;;;;;;;;;;;24.40;69.10;;;;;;5136298;27;20231;-44
2023/05/13 12:54:13;;;;;;;;;;;24.70;70.60;;;;;;5136622;27;19959;-42
2023/05/13 12:56:41;;;;;;;;;;;24.90;64.50;;;;;;5137046;27;19908;-42
2023/05/13 12:59:07;;;;;;;;;;;25.20;68.30;;;;;;5136534;27;19915;-42
2023/05/13 13:01:33;;;;;;;;;;;25.40;67.50;;;;;;5135855;27;19907;-43
2023/05/13 13:03:58;;;;;;;;;;;25.80;77.90;;;;;;5137291;27;19908;-42
2023/05/13 13:06:24;;;;;;;;;;;26.20;83.10;;;;;;5137367;27;20348;-44
2023/05/13 13:08:50;;;;;;;;;;;26.40;72.90;;;;;;5136850;27;19911;-43
2023/05/13 13:11:18;;;;;;;;;;;26.60;73.70;;;;;;5137068;27;19921;-43
2023/05/13 13:13:44;;;;;;;;;;;26.70;61.80;;;;;;5136869;27;19919;-42
2023/05/13 13:16:10;;;;;;;;;;;26.90;64.50;;;;;;5136501;27;19907;-43
2023/05/13 13:18:36;;;;;;;;;;;27.00;61.20;;;;;;5137273;27;19960;-42
2023/05/13 13:21:02;;;;;;;;;;;27.10;59.50;;;;;;5136870;27;20312;-44
2023/05/13 13:23:27;;;;;;;;;;;27.30;61.60;;;;;;5136610;27;20062;-44
2023/05/13 13:25:52;;;;;;;;;;;27.40;57.90;;;;;;5137742;27;20436;-43
2023/05/13 13:28:18;;;;;;;;;;;27.50;63.60;;;;;;5140554;27;19918;-43
2023/05/13 13:30:46;;;;;;;;;;;27.50;60.10;;;;;;5139738;27;19911;-43
2023/05/13 13:33:13;;;;;;;;;;;27.50;63.10;;;;;;5149738;27;19934;-43
2023/05/13 13:35:38;;;;;;;;;;;27.50;56.80;;;;;;5157074;27;19915;-44
2023/05/13 13:38:04;;;;;;;;;;;27.50;58.30;;;;;;5153070;27;19911;-42
2023/05/13 13:40:29;;;;;;;;;;;27.50;59.20;;;;;;5156369;27;20372;-44
2023/05/13 13:42:55;;;;;;;;;;;27.60;59.50;;;;;;5157362;27;19907;-43
2023/05/13 13:45:22;;;;;;;;;;;27.60;56.60;;;;;;5136017;27;19911;-44
2023/05/13 13:47:48;;;;;;;;;;;27.80;57.20;;;;;;5136252;27;20354;-43
2023/05/13 13:50:14;;;;;;;;;;;27.90;58.60;;;;;;5136224;27;19908;-44
2023/05/13 13:52:39;;;;;;;;;;;27.90;54.50;;;;;;5135301;27;19919;-46
2023/05/13 13:55:05;;;;;;;;;;;27.90;54.00;;;;;;5139552;27;19919;-43
2023/05/13 13:57:31;;;;;;;;;;;27.90;58.30;;;;;;5117666;27;20369;-44
2023/05/13 13:59:56;;;;;;;;;;;28.00;55.60;;;;;;5129639;27;19965;-45
2023/05/13 14:02:22;;;;;;;;;;;28.00;55.40;;;;;;5115723;28;19912;-43
2023/05/13 14:04:47;;;;;;;;;;;28.10;52.20;;;;;;5115064;28;19908;-44
2023/05/13 14:07:13;;;;;;;;;;;28.20;52.60;;;;;;5115401;28;19908;-43
2023/05/13 14:09:38;;;;;;;;;;;28.30;53.40;;;;;;5115401;28;19933;-43
2023/05/13 14:12:04;;;;;;;;;;;28.40;54.10;;;;;;5127185;27;19912;-42